Time;durP1;ratioP1;P1;durP2;ratioP2;P2;SDS_P1;SDS_P2;PMS_P1;PMS_P2;Temp;Humidity;BMP_temperature;BMP_pressure;BME280_temperature;BME280_humidity;BME280_pressure;Samples;Min_cycle;Max_cycle;Signal;HPM_P1;HPM_P2
2022/04/25 00:00:47;;;;;;;;;;;;;;;;;;5053251;28;19952;-48
2022/04/25 00:03:13;;;;;;;;;;;;;;;;;;5052984;28;20010;-46
2022/04/25 00:05:39;;;;;;;;;;;;;;;;;;5053051;28;19960;-46
2022/04/25 00:08:05;;;;;;;;;;;;;;;;;;5053167;28;19909;-47
2022/04/25 00:10:31;;;;;;;;;;;;;;;;;;5053603;28;19917;-48
2022/04/25 00:12:56;;;;;;;;;;;;;;;;;;5053294;28;19909;-47
2022/04/25 00:15:22;;;;;;;;;;;;;;;;;;5052907;28;19924;-49
2022/04/25 00:17:48;;;;;;;;;;;;;;;;;;5053058;28;19962;-48
2022/04/25 00:20:14;;;;;;;;;;;;;;;;;;5052893;28;20004;-47
2022/04/25 00:22:40;;;;;;;;;;;;;;;;;;5053003;28;19909;-48
2022/04/25 00:25:06;;;;;;;;;;;;;;;;;;5052680;28;19909;-48
2022/04/25 00:27:32;;;;;;;;;;;;;;;;;;5052808;28;20008;-47
2022/04/25 00:29:58;;;;;;;;;;;;;;;;;;5052793;28;19909;-48
2022/04/25 00:32:23;;;;;;;;;;;;;;;;;;5052675;28;19909;-47
2022/04/25 00:34:49;;;;;;;;;;;;;;;;;;5052625;28;19940;-48
2022/04/25 00:37:15;;;;;;;;;;;;;;;;;;5052676;28;19909;-48
2022/04/25 00:39:41;;;;;;;;;;;;;;;;;;5052675;28;19928;-48
2022/04/25 00:42:07;;;;;;;;;;;;;;;;;;5052614;28;19916;-49
2022/04/25 00:44:33;;;;;;;;;;;;;;;;;;5052571;28;19999;-47
2022/04/25 00:46:59;;;;;;;;;;;;;;;;;;5052634;28;19932;-47
2022/04/25 00:49:25;;;;;;;;;;;;;;;;;;5052468;28;19956;-48
2022/04/25 00:51:54;;;;;;;;;;;;;;;;;;5052835;28;20339;-48
2022/04/25 00:54:20;;;;;;;;;;;;;;;;;;5052332;28;19932;-46
2022/04/25 00:56:47;;;;;;;;;;;;;;;;;;5052458;28;19909;-48
2022/04/25 00:59:13;;;;;;;;;;;;;;;;;;5052679;28;19966;-46
2022/04/25 01:01:39;;;;;;;;;;;;;;;;;;5052589;28;20287;-48
2022/04/25 01:04:05;;;;;;;;;;;;;;;;;;5052236;28;19921;-48
2022/04/25 01:06:31;;;;;;;;;;;;;;;;;;5052588;28;19995;-47
2022/04/25 01:08:57;;;;;;;;;;;;;;;;;;5052307;28;19995;-48
2022/04/25 01:11:23;;;;;;;;;;;;;;;;;;5052267;28;19915;-48
2022/04/25 01:13:49;;;;;;;;;;;;;;;;;;5052272;28;19909;-48
2022/04/25 01:16:15;;;;;;;;;;;;;;;;;;5052236;28;19920;-47
2022/04/25 01:18:41;;;;;;;;;;;;;;;;;;5056117;28;20371;-48
2022/04/25 01:21:07;;;;;;;;;;;;;;;;;;5056342;28;19949;-49
2022/04/25 01:29:02;;;;;;;;;;;;;;;;;;5056300;28;19962;-47
2022/04/25 01:31:28;;;;;;;;;;;;;;;;;;5056099;28;20311;-47
2022/04/25 01:33:54;;;;;;;;;;;;;;;;;;5056061;28;19909;-47
2022/04/25 01:36:20;;;;;;;;;;;;;;;;;;5055967;28;19970;-48
2022/04/25 01:38:45;;;;;;;;;;;;;;;;;;5055988;28;19963;-47
2022/04/25 01:41:11;;;;;;;;;;;;;;;;;;5056270;28;19915;-49
2022/04/25 01:43:37;;;;;;;;;;;;;;;;;;5055935;28;19909;-47
2022/04/25 01:46:03;;;;;;;;;;;;;;;;;;5055937;28;19908;-49
2022/04/25 01:48:29;;;;;;;;;;;;;;;;;;5056094;28;19955;-48
2022/04/25 01:50:55;;;;;;;;;;;;;;;;;;5055748;28;20355;-47
2022/04/25 01:53:21;;;;;;;;;;;;;;;;;;5055722;28;19909;-49
2022/04/25 01:55:47;;;;;;;;;;;;;;;;;;5055618;28;20484;-48
2022/04/25 01:58:13;;;;;;;;;;;;;;;;;;5055695;28;19909;-49
2022/04/25 02:00:39;;;;;;;;;;;;;;;;;;5055739;28;20291;-48
2022/04/25 02:03:05;;;;;;;;;;;;;;;;;;5055367;28;19921;-48
2022/04/25 02:05:31;;;;;;;;;;;;;;;;;;5055538;28;20057;-48
2022/04/25 02:07:57;;;;;;;;;;;;;;;;;;5055523;28;19966;-48
2022/04/25 02:10:23;;;;;;;;;;;;;;;;;;5055460;28;20382;-48
2022/04/25 02:12:48;;;;;;;;;;;;;;;;;;5055366;28;19908;-46
2022/04/25 02:15:14;;;;;;;;;;;;;;;;;;5055317;28;19923;-48
2022/04/25 02:17:41;;;;;;;;;;;;;;;;;;5055586;28;19958;-48
2022/04/25 02:20:08;;;;;;;;;;;;;;;;;;5055397;28;19909;-49
2022/04/25 02:22:35;;;;;;;;;;;;;;;;;;5055467;28;20253;-48
2022/04/25 02:25:01;;;;;;;;;;;;;;;;;;5055151;28;19999;-48
2022/04/25 02:27:26;;;;;;;;;;;;;;;;;;5055098;28;19988;-48
2022/04/25 02:29:57;;;;;;;;;;;;;;;;;;5053667;28;20401;-47
2022/04/25 02:32:23;;;;;;;;;;;;;;;;;;5055333;28;19913;-48
2022/04/25 02:34:50;;;;;;;;;;;;;;;;;;5055001;28;20292;-47
2022/04/25 02:37:16;;;;;;;;;;;;;;;;;;5055026;28;19913;-48
2022/04/25 02:39:42;;;;;;;;;;;;;;;;;;5055183;28;20318;-47
2022/04/25 02:42:08;;;;;;;;;;;;;;;;;;5054901;28;19916;-48
2022/04/25 02:44:34;;;;;;;;;;;;;;;;;;5054742;28;19959;-48
2022/04/25 02:47:00;;;;;;;;;;;;;;;;;;5055054;28;19909;-48
2022/04/25 02:49:26;;;;;;;;;;;;;;;;;;5054706;28;20433;-49
2022/04/25 02:51:52;;;;;;;;;;;;;;;;;;5054599;28;19944;-48
2022/04/25 02:54:18;;;;;;;;;;;;;;;;;;5054591;28;20256;-48
2022/04/25 02:56:43;;;;;;;;;;;;;;;;;;5054536;28;19966;-48
2022/04/25 02:59:09;;;;;;;;;;;;;;;;;;5054528;28;20330;-48
2022/04/25 03:01:35;;;;;;;;;;;;;;;;;;5054395;28;19909;-48
2022/04/25 03:04:01;;;;;;;;;;;;;;;;;;5054299;28;20418;-49
2022/04/25 03:06:27;;;;;;;;;;;;;;;;;;5054411;28;19955;-48
2022/04/25 03:08:53;;;;;;;;;;;;;;;;;;5054292;28;20287;-48
2022/04/25 03:11:19;;;;;;;;;;;;;;;;;;5054301;28;20011;-53
2022/04/25 03:13:45;;;;;;;;;;;;;;;;;;5054308;28;20436;-51
2022/04/25 03:16:11;;;;;;;;;;;;;;;;;;5054416;28;20295;-47
2022/04/25 03:18:37;;;;;;;;;;;;;;;;;;5054176;28;19909;-46
2022/04/25 03:21:03;;;;;;;;;;;;;;;;;;5054045;28;19916;-47
2022/04/25 03:23:28;;;;;;;;;;;;;;;;;;5054098;28;19909;-48
2022/04/25 03:25:54;;;;;;;;;;;;;;;;;;5054246;28;19908;-48
2022/04/25 03:28:20;;;;;;;;;;;;;;;;;;5053942;28;19913;-47
2022/04/25 03:30:46;;;;;;;;;;;;;;;;;;5053993;28;19916;-47
2022/04/25 03:33:12;;;;;;;;;;;;;;;;;;5053925;28;19954;-47
2022/04/25 03:35:38;;;;;;;;;;;;;;;;;;5053786;28;19917;-46
2022/04/25 03:38:06;;;;;;;;;;;;;;;;;;5053742;28;19909;-47
2022/04/25 03:40:32;;;;;;;;;;;;;;;;;;5053300;28;19916;-47
2022/04/25 03:42:58;;;;;;;;;;;;;;;;;;5053680;28;19909;-48
2022/04/25 03:45:23;;;;;;;;;;;;;;;;;;5053603;28;19909;-48
2022/04/25 03:47:49;;;;;;;;;;;;;;;;;;5053635;28;20290;-48
2022/04/25 03:50:15;;;;;;;;;;;;;;;;;;5053615;28;19919;-47
2022/04/25 03:52:42;;;;;;;;;;;;;;;;;;5053564;28;19908;-47
2022/04/25 03:57:52;;;;;;;;;;;;;;;;;;5053483;28;19916;-47
2022/04/25 04:06:30;;;;;;;;;;;19.50;88.70;;;;;;5060306;28;19920;-53
2022/04/25 04:08:56;;;;;;;;;;;19.40;88.70;;;;;;5053723;28;20301;-53
2022/04/25 04:11:22;;;;;;;;;;;;;;;;;;5053398;28;19912;-53
2022/04/25 04:13:47;;;;;;;;;;;;;;;;;;5053353;28;19909;-52
2022/04/25 04:16:13;;;;;;;;;;;;;;;;;;5053471;28;20008;-51
2022/04/25 04:18:41;;;;;;;;;;;;;;;;;;5053397;28;19920;-52
2022/04/25 04:21:09;;;;;;;;;;;;;;;;;;5053491;28;19955;-54
2022/04/25 04:23:35;;;;;;;;;;;19.40;88.40;;;;;;5053207;28;19908;-51
2022/04/25 04:26:00;;;;;;;;;;;19.40;89.10;;;;;;5053215;28;20363;-54
2022/04/25 04:28:26;;;;;;;;;;;19.40;88.80;;;;;;5053621;28;20259;-53
2022/04/25 04:30:52;;;;;;;;;;;;;;;;;;5053095;28;19908;-52
2022/04/25 04:33:17;;;;;;;;;;;;;;;;;;5053252;28;19908;-52
2022/04/25 04:38:28;;;;;;;;;;;19.40;88.40;;;;;;5053053;28;20339;-53
2022/04/25 04:40:53;;;;;;;;;;;;;;;;;;5052965;28;19952;-51
2022/04/25 04:43:19;;;;;;;;;;;;;;;;;;5052816;28;19920;-53
2022/04/25 04:45:45;;;;;;;;;;;;;;;;;;5052856;28;19916;-51
2022/04/25 04:48:11;;;;;;;;;;;19.30;88.90;;;;;;5052852;28;19912;-53
2022/04/25 04:50:36;;;;;;;;;;;19.10;89.10;;;;;;5052819;28;19909;-53
2022/04/25 04:53:02;;;;;;;;;;;19.30;88.40;;;;;;5052036;28;19947;-52
2022/04/25 04:55:27;;;;;;;;;;;;;;;;;;5052760;28;20329;-53
2022/04/25 04:57:55;;;;;;;;;;;;;;;;;;5053045;28;19909;-54
2022/04/25 05:00:23;;;;;;;;;;;;;;;;;;5051410;28;19916;-54
2022/04/25 05:02:49;;;;;;;;;;;19.30;89.20;;;;;;5052832;28;19921;-54
2022/04/25 05:05:15;;;;;;;;;;;;;;;;;;5052620;28;20282;-51
2022/04/25 05:07:41;;;;;;;;;;;19.10;89.00;;;;;;5052485;28;19909;-51
2022/04/25 05:10:07;;;;;;;;;;;19.10;88.90;;;;;;5052571;28;19909;-55
2022/04/25 05:12:33;;;;;;;;;;;;;;;;;;5052713;28;19916;-54
2022/04/25 05:14:59;;;;;;;;;;;;;;;;;;5052519;28;19921;-54
2022/04/25 05:17:25;;;;;;;;;;;19.30;87.60;;;;;;5050860;28;20090;-51
2022/04/25 05:19:51;;;;;;;;;;;;;;;;;;5052414;28;20004;-54
2022/04/25 05:22:17;;;;;;;;;;;;;;;;;;5052495;28;20293;-53
2022/04/25 05:24:43;;;;;;;;;;;;;;;;;;5052309;28;19963;-50
2022/04/25 05:27:09;;;;;;;;;;;;;;;;;;5052395;28;20544;-52
2022/04/25 05:29:35;;;;;;;;;;;19.30;89.20;;;;;;5052358;28;20046;-53
2022/04/25 05:32:00;;;;;;;;;;;19.40;86.80;;;;;;5052391;28;19908;-52
2022/04/25 05:34:26;;;;;;;;;;;19.30;88.80;;;;;;5052230;28;20379;-54
2022/04/25 05:36:52;;;;;;;;;;;;;;;;;;5052266;28;20314;-54
2022/04/25 05:39:17;;;;;;;;;;;;;;;;;;5052266;28;19999;-51
2022/04/25 05:41:46;;;;;;;;;;;;;;;;;;5052172;28;19920;-53
2022/04/25 05:44:12;;;;;;;;;;;;;;;;;;5052101;28;19909;-53
2022/04/25 05:46:38;;;;;;;;;;;;;;;;;;5052079;28;20393;-53
2022/04/25 05:52:00;;;;;;;;;;;19.30;89.50;;;;;;5052231;28;19916;-52
2022/04/25 05:54:26;;;;;;;;;;;;;;;;;;5052107;28;19913;-54
2022/04/25 05:56:52;;;;;;;;;;;;;;;;;;5051946;28;20007;-54
2022/04/25 05:59:18;;;;;;;;;;;19.30;89.20;;;;;;5052050;28;19909;-54
2022/04/25 06:01:44;;;;;;;;;;;19.30;89.40;;;;;;5052045;28;19921;-51
2022/04/25 06:04:10;;;;;;;;;;;;;;;;;;5054811;28;19935;-50
2022/04/25 06:06:35;;;;;;;;;;;19.30;85.40;;;;;;5055639;28;19913;-51
2022/04/25 06:09:02;;;;;;;;;;;;;;;;;;5055770;28;19913;-50
2022/04/25 06:11:28;;;;;;;;;;;;;;;;;;5055766;28;19909;-51
2022/04/25 06:13:56;;;;;;;;;;;;;;;;;;5055499;28;19916;-51
2022/04/25 06:16:21;;;;;;;;;;;19.30;87.50;;;;;;5055436;28;19917;-52
2022/04/25 06:18:47;;;;;;;;;;;;;;;;;;5055460;28;19909;-50
2022/04/25 06:21:13;;;;;;;;;;;;;;;;;;5055457;28;19909;-50
2022/04/25 06:23:39;;;;;;;;;;;;;;;;;;5055583;28;20109;-49
2022/04/25 06:26:04;;;;;;;;;;;19.20;89.90;;;;;;5055342;28;20350;-51
2022/04/25 06:28:30;;;;;;;;;;;19.30;89.90;;;;;;5055618;28;19909;-51
2022/04/25 06:30:55;;;;;;;;;;;19.40;86.50;;;;;;5055275;28;20298;-52
2022/04/25 06:33:21;;;;;;;;;;;;;;;;;;5055269;28;20035;-50
2022/04/25 06:35:49;;;;;;;;;;;;;;;;;;5055140;28;20391;-49
2022/04/25 06:38:15;;;;;;;;;;;;;;;;;;5055226;28;19908;-48
2022/04/25 06:40:42;;;;;;;;;;;;;;;;;;5055139;28;19909;-49
2022/04/25 06:43:08;;;;;;;;;;;;;;;;;;5055015;28;19962;-49
2022/04/25 06:45:34;;;;;;;;;;;19.40;90.10;;;;;;5055099;28;19909;-50
2022/04/25 06:47:59;;;;;;;;;;;19.30;86.80;;;;;;5053618;28;19931;-49
2022/04/25 06:50:25;;;;;;;;;;;;;;;;;;5054950;28;19909;-50
2022/04/25 06:52:52;;;;;;;;;;;;;;;;;;5054829;28;19952;-51
2022/04/25 06:55:19;;;;;;;;;;;19.20;90.20;;;;;;5054695;28;20417;-50
2022/04/25 06:57:44;;;;;;;;;;;19.30;90.30;;;;;;5054725;28;20374;-50
2022/04/25 07:00:11;;;;;;;;;;;19.20;87.40;;;;;;5054789;28;20004;-51
2022/04/25 07:02:37;;;;;;;;;;;;;;;;;;5054456;28;19928;-51
2022/04/25 07:05:04;;;;;;;;;;;;;;;;;;5054684;28;19909;-51
2022/04/25 07:07:30;;;;;;;;;;;19.20;90.30;;;;;;5054565;28;19916;-50
2022/04/25 07:09:56;;;;;;;;;;;19.20;88.70;;;;;;5054604;28;19909;-53
2022/04/25 07:12:21;;;;;;;;;;;;;;;;;;5054495;28;19916;-53
2022/04/25 07:14:48;;;;;;;;;;;;;;;;;;5053527;28;19966;-52
2022/04/25 07:17:13;;;;;;;;;;;;;;;;;;5054407;28;19912;-51
2022/04/25 07:19:39;;;;;;;;;;;;;;;;;;5054346;28;19913;-51
2022/04/25 07:30:18;;;;;;;;;;;19.20;90.40;;;;;;5054257;28;19916;-49
2022/04/25 07:32:44;;;;;;;;;;;19.20;90.30;;;;;;5054495;28;19908;-48
2022/04/25 07:35:10;;;;;;;;;;;;;;;;;;5054058;28;19912;-49
2022/04/25 07:37:36;;;;;;;;;;;;;;;;;;5054133;28;19909;-48
2022/04/25 07:40:02;;;;;;;;;;;;;;;;;;5054397;28;20054;-48
2022/04/25 07:42:29;;;;;;;;;;;19.40;90.10;;;;;;5053997;28;19916;-49
2022/04/25 07:44:55;;;;;;;;;;;;;;;;;;5054221;28;19916;-50
2022/04/25 07:47:20;;;;;;;;;;;19.20;90.10;;;;;;5053829;28;19909;-49
2022/04/25 07:49:46;;;;;;;;;;;19.40;90.20;;;;;;5053861;28;19909;-49
2022/04/25 07:52:12;;;;;;;;;;;;;;;;;;5054031;28;19909;-49
2022/04/25 07:54:38;;;;;;;;;;;;;;;;;;5053626;28;20008;-49
2022/04/25 07:57:05;;;;;;;;;;;;;;;;;;5053708;28;19913;-50
2022/04/25 07:59:31;;;;;;;;;;;;;;;;;;5053951;28;19955;-49
2022/04/25 08:01:57;;;;;;;;;;;19.30;90.10;;;;;;5053389;28;19920;-51
2022/04/25 08:04:23;;;;;;;;;;;;;;;;;;5053528;28;19913;-55
2022/04/25 08:06:48;;;;;;;;;;;19.30;90.00;;;;;;5053842;28;19935;-53
2022/04/25 08:09:15;;;;;;;;;;;19.30;88.80;;;;;;5053406;28;19909;-51
2022/04/25 08:11:40;;;;;;;;;;;19.40;90.00;;;;;;5053621;28;20011;-53
2022/04/25 08:19:35;;;;;;;;;;;19.50;90.00;;;;;;5060364;28;19955;-50
2022/04/25 08:22:00;;;;;;;;;;;19.50;90.10;;;;;;5053256;28;19910;-52
2022/04/25 08:24:26;;;;;;;;;;;19.60;90.10;;;;;;5053153;28;20278;-50
2022/04/25 08:26:53;;;;;;;;;;;;;;;;;;5053030;28;19962;-51
2022/04/25 08:29:19;;;;;;;;;;;;;;;;;;5052996;28;20326;-51
2022/04/25 08:31:45;;;;;;;;;;;;;;;;;;5052996;28;19954;-50
2022/04/25 08:34:13;;;;;;;;;;;;;;;;;;5052917;28;19916;-50
2022/04/25 08:36:38;;;;;;;;;;;19.80;89.80;;;;;;5053151;28;19917;-51
2022/04/25 08:39:04;;;;;;;;;;;;;;;;;;5052956;28;20298;-51
2022/04/25 08:41:46;;;;;;;;;;;19.70;88.50;;;;;;5052730;28;19909;-51
2022/04/25 08:44:12;;;;;;;;;;;;;;;;;;5052857;28;19909;-53
2022/04/25 08:46:38;;;;;;;;;;;;;;;;;;5052513;28;19909;-52
2022/04/25 08:49:03;;;;;;;;;;;;;;;;;;5052752;28;19916;-55
2022/04/25 08:51:30;;;;;;;;;;;19.70;90.20;;;;;;5052725;28;19912;-49
2022/04/25 08:53:56;;;;;;;;;;;19.90;86.90;;;;;;5052727;28;19966;-49
2022/04/25 08:56:25;;;;;;;;;;;19.90;90.20;;;;;;5052870;28;19921;-52
2022/04/25 08:58:51;;;;;;;;;;;19.90;90.30;;;;;;5051400;28;19959;-51
2022/04/25 09:01:17;;;;;;;;;;;;;;;;;;5052480;28;19916;-49
2022/04/25 09:03:43;;;;;;;;;;;;;;;;;;5052618;28;19917;-51
2022/04/25 09:06:08;;;;;;;;;;;20.10;90.40;;;;;;5052601;28;19992;-50
2022/04/25 09:08:34;;;;;;;;;;;20.10;90.10;;;;;;5052533;28;19962;-51
2022/04/25 09:13:44;;;;;;;;;;;20.00;90.20;;;;;;5052639;28;19915;-51
2022/04/25 09:16:14;;;;;;;;;;;20.00;90.50;;;;;;5051180;28;19917;-52
2022/04/25 09:18:40;;;;;;;;;;;;;;;;;;5052465;28;19913;-51
2022/04/25 09:21:06;;;;;;;;;;;;;;;;;;5052176;28;19909;-51
2022/04/25 09:23:31;;;;;;;;;;;;;;;;;;5052154;28;19954;-50
2022/04/25 09:25:57;;;;;;;;;;;;;;;;;;5052248;28;19909;-51
2022/04/25 09:28:23;;;;;;;;;;;;;;;;;;5052274;28;19908;-51
2022/04/25 09:30:56;;;;;;;;;;;20.10;90.50;;;;;;5052142;28;19912;-52
2022/04/25 09:33:22;;;;;;;;;;;20.20;90.00;;;;;;5052216;28;19909;-51
2022/04/25 09:35:48;;;;;;;;;;;;;;;;;;5052011;28;20019;-50
2022/04/25 09:38:14;;;;;;;;;;;;;;;;;;5053534;28;19908;-51
2022/04/25 09:40:41;;;;;;;;;;;20.40;91.00;;;;;;5056438;28;19909;-50
2022/04/25 09:43:08;;;;;;;;;;;20.40;91.10;;;;;;5056188;28;19913;-51
2022/04/25 09:45:34;;;;;;;;;;;20.40;89.30;;;;;;5056149;28;19909;-52
2022/04/25 09:48:00;;;;;;;;;;;20.50;91.30;;;;;;5055964;28;19909;-53
2022/04/25 09:50:27;;;;;;;;;;;;;;;;;;5056204;28;19954;-51
2022/04/25 09:52:53;;;;;;;;;;;;;;;;;;5055928;28;19915;-51
2022/04/25 09:55:19;;;;;;;;;;;20.40;92.00;;;;;;5055828;28;19967;-51
2022/04/25 09:57:46;;;;;;;;;;;20.50;91.90;;;;;;5055715;28;19944;-51
2022/04/25 10:00:13;;;;;;;;;;;;;;;;;;5055894;28;19962;-53
2022/04/25 10:02:39;;;;;;;;;;;20.60;92.20;;;;;;5055546;28;19959;-51
2022/04/25 10:05:05;;;;;;;;;;;;;;;;;;5055609;28;19915;-52
2022/04/25 10:07:31;;;;;;;;;;;20.60;92.00;;;;;;5055674;28;20003;-52
2022/04/25 10:09:56;;;;;;;;;;;;;;;;;;5056023;28;20322;-49
2022/04/25 10:12:22;;;;;;;;;;;;;;;;;;5055773;28;19909;-50
2022/04/25 10:14:48;;;;;;;;;;;;;;;;;;5055352;28;20005;-49
2022/04/25 10:17:14;;;;;;;;;;;;;;;;;;5055657;28;19931;-48
2022/04/25 10:19:40;;;;;;;;;;;;;;;;;;5055736;28;19916;-50
2022/04/25 10:22:06;;;;;;;;;;;;;;;;;;5055797;28;19913;-51
2022/04/25 10:24:32;;;;;;;;;;;20.70;92.00;;;;;;5055860;28;20007;-51
2022/04/25 10:26:58;;;;;;;;;;;;;;;;;;5055744;28;19909;-48
2022/04/25 10:29:24;;;;;;;;;;;;;;;;;;5055425;28;20438;-51
2022/04/25 10:31:50;;;;;;;;;;;;;;;;;;5055263;28;19958;-51
2022/04/25 10:34:16;;;;;;;;;;;;;;;;;;5055255;28;19909;-50
2022/04/25 10:36:43;;;;;;;;;;;;;;;;;;5055189;28;20317;-52
2022/04/25 10:39:09;;;;;;;;;;;;;;;;;;5055049;28;19909;-50
2022/04/25 10:44:19;;;;;;;;;;;;;;;;;;5055186;28;19919;-53
2022/04/25 10:46:46;;;;;;;;;;;;;;;;;;5055041;28;19909;-53
2022/04/25 10:49:12;;;;;;;;;;;;;;;;;;5054305;28;19909;-53
2022/04/25 10:51:38;;;;;;;;;;;;;;;;;;5054656;28;19908;-54
2022/04/25 10:54:05;;;;;;;;;;;;;;;;;;5054757;28;20401;-50
2022/04/25 10:56:31;;;;;;;;;;;;;;;;;;5053563;28;20392;-49
2022/04/25 10:58:57;;;;;;;;;;;;;;;;;;5055024;28;20003;-51
2022/04/25 11:01:22;;;;;;;;;;;;;;;;;;5054176;28;19909;-50
2022/04/25 11:03:48;;;;;;;;;;;;;;;;;;5055113;28;19924;-50
2022/04/25 11:06:24;;;;;;;;;;;20.30;92.50;;;;;;5053173;28;19909;-48
2022/04/25 11:08:51;;;;;;;;;;;;;;;;;;5054287;28;19959;-50
2022/04/25 11:11:18;;;;;;;;;;;;;;;;;;5054785;28;19913;-49
2022/04/25 11:13:43;;;;;;;;;;;;;;;;;;5054860;28;20005;-51
2022/04/25 11:16:09;;;;;;;;;;;;;;;;;;5054343;28;19970;-49
2022/04/25 11:18:38;;;;;;;;;;;;;;;;;;5054380;28;19916;-49
2022/04/25 11:21:05;;;;;;;;;;;20.30;90.50;;;;;;5054319;28;19916;-49
2022/04/25 11:23:31;;;;;;;;;;;20.40;91.70;;;;;;5054531;28;19916;-50
2022/04/25 11:25:57;;;;;;;;;;;20.10;91.60;;;;;;5054455;28;19909;-49
2022/04/25 11:28:23;;;;;;;;;;;;;;;;;;5054168;28;19909;-50
2022/04/25 11:31:07;;;;;;;;;;;20.60;91.60;;;;;;5054165;28;19963;-49
2022/04/25 11:33:33;;;;;;;;;;;;;;;;;;5054135;28;20003;-48
2022/04/25 11:35:59;;;;;;;;;;;20.30;91.40;;;;;;5053967;28;20008;-48
2022/04/25 11:39:50;;;;;;;;;;;;;;;;;;5054333;28;19916;-49
2022/04/25 11:41:11;;;;;;;;;;;;;;;;;;5054131;28;19912;-50
2022/04/25 11:43:36;;;;;;;;;;;20.20;91.90;;;;;;5053983;28;19909;-49
2022/04/25 11:46:02;;;;;;;;;;;20.10;92.30;;;;;;5053931;28;19916;-50
2022/04/25 11:48:28;;;;;;;;;;;;;;;;;;5053850;28;19909;-50
2022/04/25 11:50:53;;;;;;;;;;;;;;;;;;5053859;28;20366;-51
2022/04/25 11:53:19;;;;;;;;;;;;;;;;;;5053745;28;19913;-49
2022/04/25 11:55:45;;;;;;;;;;;;;;;;;;5053754;28;19975;-49
2022/04/25 11:58:11;;;;;;;;;;;20.20;91.50;;;;;;5053638;28;19909;-48
2022/04/25 12:00:36;;;;;;;;;;;20.30;92.30;;;;;;5053211;28;19983;-52
2022/04/25 12:03:02;;;;;;;;;;;20.30;90.80;;;;;;5053438;28;19921;-51
2022/04/25 12:05:28;;;;;;;;;;;;;;;;;;5053585;28;19913;-51
2022/04/25 12:16:08;;;;;;;;;;;20.50;91.30;;;;;;5053825;28;19975;-51
2022/04/25 12:18:33;;;;;;;;;;;;;;;;;;5053673;28;19909;-51
2022/04/25 12:20:59;;;;;;;;;;;;;;;;;;5053342;28;19981;-54
2022/04/25 12:23:27;;;;;;;;;;;20.40;91.20;;;;;;5053268;28;19909;-55
2022/04/25 12:25:53;;;;;;;;;;;20.20;91.50;;;;;;5053279;28;19963;-53
2022/04/25 12:28:19;;;;;;;;;;;20.30;91.40;;;;;;5053079;28;19946;-52
2022/04/25 12:30:49;;;;;;;;;;;20.30;91.30;;;;;;5053033;28;19909;-51
2022/04/25 12:33:16;;;;;;;;;;;20.30;91.20;;;;;;5053173;28;19923;-52
2022/04/25 12:35:42;;;;;;;;;;;;;;;;;;5053085;28;19921;-51
2022/04/25 12:38:08;;;;;;;;;;;;;;;;;;5053279;28;19909;-52
2022/04/25 12:40:33;;;;;;;;;;;;;;;;;;5052888;28;20476;-53
2022/04/25 12:43:00;;;;;;;;;;;;;;;;;;5052896;28;19948;-50
2022/04/25 12:45:25;;;;;;;;;;;;;;;;;;5052662;28;20297;-53
2022/04/25 12:47:52;;;;;;;;;;;;;;;;;;5052693;28;19999;-54
2022/04/25 12:50:18;;;;;;;;;;;;;;;;;;5052661;28;19909;-53
2022/04/25 12:52:44;;;;;;;;;;;;;;;;;;5052587;28;19920;-52
2022/04/25 12:55:09;;;;;;;;;;;;;;;;;;5052571;28;20421;-51
2022/04/25 12:57:35;;;;;;;;;;;;;;;;;;5052480;28;19982;-53
2022/04/25 13:00:01;;;;;;;;;;;20.10;90.90;;;;;;5052536;28;19940;-52
2022/04/25 13:02:26;;;;;;;;;;;20.10;91.10;;;;;;5052356;28;19968;-51
2022/04/25 13:04:52;;;;;;;;;;;;;;;;;;5052555;28;20434;-52
2022/04/25 13:07:19;;;;;;;;;;;20.10;91.00;;;;;;5052620;28;19955;-52
2022/04/25 13:09:44;;;;;;;;;;;20.10;91.10;;;;;;5052593;28;20012;-53
2022/04/25 13:12:14;;;;;;;;;;;20.10;90.80;;;;;;5052230;28;19979;-51
2022/04/25 13:14:40;;;;;;;;;;;;;;;;;;5052598;28;19970;-51
2022/04/25 13:17:06;;;;;;;;;;;;;;;;;;5052529;28;20398;-49
2022/04/25 13:19:32;;;;;;;;;;;;;;;;;;5052760;28;19909;-49
2022/04/25 13:21:58;;;;;;;;;;;;;;;;;;5052801;28;20355;-49
2022/04/25 13:24:24;;;;;;;;;;;;;;;;;;5052473;28;20501;-49
2022/04/25 13:26:49;;;;;;;;;;;;;;;;;;5052433;28;19912;-49
2022/04/25 13:29:15;;;;;;;;;;;;;;;;;;5052465;28;19944;-50
2022/04/25 13:31:41;;;;;;;;;;;20.10;89.80;;;;;;5052427;28;19915;-49
2022/04/25 13:34:07;;;;;;;;;;;;;;;;;;5052382;28;19951;-49
2022/04/25 13:36:33;;;;;;;;;;;;;;;;;;5052320;28;19923;-48
2022/04/25 13:38:59;;;;;;;;;;;;;;;;;;5052174;28;19913;-47
2022/04/25 13:41:24;;;;;;;;;;;19.90;90.90;;;;;;5052310;28;19955;-47
2022/04/25 13:43:50;;;;;;;;;;;19.80;91.10;;;;;;5052520;28;20003;-47
2022/04/25 13:46:16;;;;;;;;;;;;;;;;;;5052575;28;20283;-47
2022/04/25 13:48:42;;;;;;;;;;;19.90;91.00;;;;;;5052133;28;19909;-48
2022/04/25 13:51:08;;;;;;;;;;;;;;;;;;5052228;28;19955;-49
2022/04/25 13:53:34;;;;;;;;;;;;;;;;;;5052106;28;19909;-48
2022/04/25 13:56:02;;;;;;;;;;;;;;;;;;5052060;28;19975;-46
2022/04/25 13:58:28;;;;;;;;;;;;;;;;;;5051935;28;19908;-48
2022/04/25 14:00:54;;;;;;;;;;;;;;;;;;5051875;28;19909;-48
2022/04/25 14:03:21;;;;;;;;;;;;;;;;;;5051848;28;19925;-48
2022/04/25 14:05:48;;;;;;;;;;;20.00;90.80;;;;;;5051912;28;20433;-47
2022/04/25 14:08:14;;;;;;;;;;;;;;;;;;5052361;28;19909;-48
2022/04/25 14:10:40;;;;;;;;;;;;;;;;;;5052206;28;20439;-46
2022/04/25 14:13:06;;;;;;;;;;;;;;;;;;5051930;28;19948;-47
2022/04/25 14:15:32;;;;;;;;;;;20.10;89.10;;;;;;5051813;28;20000;-47
2022/04/25 14:17:58;;;;;;;;;;;;;;;;;;5052081;28;20350;-49
2022/04/25 14:20:24;;;;;;;;;;;;;;;;;;5051803;28;19963;-48
2022/04/25 14:22:50;;;;;;;;;;;;;;;;;;5051848;28;19941;-47
2022/04/25 14:25:15;;;;;;;;;;;;;;;;;;5054614;28;19916;-47
2022/04/25 14:27:41;;;;;;;;;;;;;;;;;;5055429;28;19909;-48
2022/04/25 14:30:09;;;;;;;;;;;;;;;;;;5055403;28;20171;-48
2022/04/25 14:32:34;;;;;;;;;;;20.40;91.00;;;;;;5055350;28;19915;-46
2022/04/25 14:35:00;;;;;;;;;;;20.20;89.80;;;;;;5055089;28;19912;-46
2022/04/25 14:37:26;;;;;;;;;;;;;;;;;;5055317;28;19954;-48
2022/04/25 14:39:52;;;;;;;;;;;;;;;;;;5055121;28;20279;-46
2022/04/25 14:42:17;;;;;;;;;;;;;;;;;;5055165;28;19974;-47
2022/04/25 14:44:43;;;;;;;;;;;;;;;;;;5054912;28;19957;-48
2022/04/25 14:47:09;;;;;;;;;;;;;;;;;;5054879;28;20113;-46
2022/04/25 14:55:04;;;;;;;;;;;20.30;87.90;;;;;;5055055;28;19971;-47
2022/04/25 14:57:30;;;;;;;;;;;;;;;;;;5054827;28;19949;-47
2022/04/25 14:59:56;;;;;;;;;;;;;;;;;;5054938;28;19909;-46
2022/04/25 15:02:22;;;;;;;;;;;;;;;;;;5054457;28;19928;-47
2022/04/25 15:04:47;;;;;;;;;;;;;;;;;;5054675;28;20007;-50
2022/04/25 15:07:14;;;;;;;;;;;;;;;;;;5054602;28;19909;-49
2022/04/25 15:09:42;;;;;;;;;;;20.40;90.70;;;;;;5054679;28;19954;-56
2022/04/25 15:12:08;;;;;;;;;;;;;;;;;;5054857;28;19941;-52
2022/04/25 15:14:33;;;;;;;;;;;;;;;;;;5054541;28;19908;-50
2022/04/25 15:16:59;;;;;;;;;;;20.30;90.60;;;;;;5054568;28;20012;-51
2022/04/25 15:19:24;;;;;;;;;;;20.40;90.50;;;;;;5054513;28;19909;-51
2022/04/25 15:21:50;;;;;;;;;;;;;;;;;;5054531;28;19930;-51
2022/04/25 15:24:16;;;;;;;;;;;20.10;87.60;;;;;;5054346;28;19909;-49
2022/04/25 15:26:42;;;;;;;;;;;;;;;;;;5054419;28;19948;-50
2022/04/25 15:29:07;;;;;;;;;;;;;;;;;;5054249;28;20448;-52
2022/04/25 15:31:33;;;;;;;;;;;;;;;;;;5054265;28;20074;-51
2022/04/25 15:33:59;;;;;;;;;;;;;;;;;;5054482;28;19936;-49
2022/04/25 15:36:25;;;;;;;;;;;20.40;90.30;;;;;;5053297;28;19917;-48
2022/04/25 15:38:51;;;;;;;;;;;20.40;90.40;;;;;;5054046;28;19959;-49
2022/04/25 15:41:17;;;;;;;;;;;;;;;;;;5052847;28;19908;-51
2022/04/25 15:43:42;;;;;;;;;;;20.40;90.90;;;;;;5053984;28;19908;-52
2022/04/25 15:46:08;;;;;;;;;;;20.30;90.60;;;;;;5053934;28;19913;-52
2022/04/25 15:48:34;;;;;;;;;;;;;;;;;;5054171;28;19999;-52
2022/04/25 15:51:00;;;;;;;;;;;;;;;;;;5053521;28;20282;-50
2022/04/25 15:57:43;;;;;;;;;;;;;;;;;;5053794;28;19909;-50
2022/04/25 15:58:56;;;;;;;;;;;;;;;;;;5053894;28;19932;-49
2022/04/25 16:01:22;;;;;;;;;;;;;;;;;;5053449;28;19917;-50
2022/04/25 16:03:48;;;;;;;;;;;;;;;;;;5053647;28;19917;-50
2022/04/25 16:06:13;;;;;;;;;;;;;;;;;;5053510;28;19929;-51
2022/04/25 16:08:39;;;;;;;;;;;;;;;;;;5053542;28;19913;-50
2022/04/25 16:11:06;;;;;;;;;;;20.40;89.50;;;;;;5053428;28;20346;-53
2022/04/25 16:13:32;;;;;;;;;;;20.20;87.70;;;;;;5053586;28;19991;-50
2022/04/25 16:15:59;;;;;;;;;;;;;;;;;;5053317;28;20020;-51
2022/04/25 16:18:25;;;;;;;;;;;20.20;90.40;;;;;;5053262;28;19955;-49
2022/04/25 16:20:50;;;;;;;;;;;20.10;90.50;;;;;;5053362;28;19912;-48
2022/04/25 16:23:16;;;;;;;;;;;;;;;;;;5053476;28;19913;-47
2022/04/25 16:25:42;;;;;;;;;;;;;;;;;;5053188;28;19908;-48
2022/04/25 16:28:08;;;;;;;;;;;;;;;;;;5053139;28;19948;-48
2022/04/25 16:30:34;;;;;;;;;;;;;;;;;;5053039;28;20007;-48
2022/04/25 16:33:00;;;;;;;;;;;;;;;;;;5052936;28;20007;-47
2022/04/25 16:35:27;;;;;;;;;;;;;;;;;;5053092;28;19920;-47
2022/04/25 16:37:53;;;;;;;;;;;20.10;90.00;;;;;;5053125;28;20370;-48
2022/04/25 16:40:19;;;;;;;;;;;20.10;90.00;;;;;;5052987;28;19916;-49
2022/04/25 16:42:44;;;;;;;;;;;;;;;;;;5053262;28;19983;-47
2022/04/25 16:45:10;;;;;;;;;;;19.90;90.20;;;;;;5052963;28;19940;-49
2022/04/25 16:47:37;;;;;;;;;;;;;;;;;;5051951;28;19959;-49